createdAt,value
2022-07-29T00:15:22.557Z,20.2
2022-07-29T00:33:46.410Z,20.01
2022-07-29T00:55:30.074Z,19.9
2022-07-29T01:15:06.070Z,19.82
2022-07-29T01:34:22.349Z,19.84
2022-07-29T01:54:06.385Z,19.78
2022-07-29T02:14:39.994Z,19.66
2022-07-29T02:34:11.386Z,19.59
2022-07-29T02:54:54.254Z,19.46
2022-07-29T03:14:57.970Z,19.3
2022-07-29T03:34:44.198Z,19.22
2022-07-29T03:54:49.053Z,18.83
2022-07-29T04:15:03.919Z,18.61
2022-07-29T04:35:29.680Z,18.49
2022-07-29T04:54:48.668Z,18.7
2022-07-29T05:15:19.000Z,19.63
2022-07-29T05:34:36.415Z,20.21
2022-07-29T05:54:03.221Z,20.43
2022-07-29T06:14:41.309Z,20.43
2022-07-29T06:34:37.951Z,20.77
2022-07-29T06:55:25.453Z,21.01
2022-07-29T07:15:15.853Z,21.47
2022-07-29T07:34:40.929Z,21.96
2022-07-29T07:54:53.102Z,22.53
2022-07-29T08:14:59.602Z,23.27
2022-07-29T08:35:18.507Z,23.92
2022-07-29T08:55:01.671Z,24.87
2022-07-29T09:14:35.296Z,26.33
2022-07-29T09:34:59.045Z,26.26
2022-07-29T09:53:44.766Z,25.42
2022-07-29T10:14:16.340Z,22.45
2022-07-29T10:34:46.500Z,20.86
2022-07-29T10:55:06.597Z,20.1
2022-07-29T11:15:17.821Z,20.51
2022-07-29T11:34:34.960Z,22.14
2022-07-29T11:54:27.378Z,26.53
2022-07-29T12:15:02.752Z,26.85
2022-07-29T12:34:54.340Z,26.92
2022-07-29T12:55:07.401Z,27.44
2022-07-29T13:13:27.946Z,27.55
2022-07-29T13:33:26.750Z,28.59
2022-07-29T13:55:06.736Z,29.69
2022-07-29T14:14:14.688Z,28.76
2022-07-29T14:35:00.038Z,27.75
2022-07-29T14:54:50.678Z,27.45
2022-07-29T15:14:27.354Z,27.55
2022-07-29T15:35:20.763Z,26.91
2022-07-29T15:53:53.397Z,26.64
2022-07-29T16:14:51.139Z,26.41
2022-07-29T16:33:59.772Z,23.88
2022-07-29T16:53:48.961Z,17.81
2022-07-29T17:35:56.597Z,17
2022-07-29T17:54:28.565Z,17.11
2022-07-29T18:14:41.391Z,17.35
2022-07-29T18:35:02.146Z,17.57
2022-07-29T18:55:02.506Z,17.43
2022-07-29T19:14:31.627Z,17.43
2022-07-29T19:33:54.509Z,17.29
2022-07-29T19:55:08.928Z,17.03
2022-07-29T20:14:31.989Z,17
2022-07-29T20:34:47.648Z,17
2022-07-29T20:55:15.530Z,17.2
2022-07-29T21:14:03.764Z,17.1
2022-07-29T21:33:59.187Z,16.99
2022-07-29T21:54:52.814Z,16.34
2022-07-29T22:14:18.273Z,16.19
2022-07-29T22:53:59.808Z,16.12
2022-07-29T23:13:48.795Z,16.07
2022-07-29T23:33:57.259Z,15.98
2022-07-29T23:55:36.095Z,15.98
